Time;durP1;ratioP1;P1;durP2;ratioP2;P2;SDS_P1;SDS_P2;PMS_P1;PMS_P2;Temp;Humidity;BMP_temperature;BMP_pressure;BME280_temperature;BME280_humidity;BME280_pressure;Samples;Min_cycle;Max_cycle;Signal;HPM_P1;HPM_P2
2024/01/24 00:00:51;;;;;;;2.60;1.02;;;;;;;;;;5052049;28;20205;-72
2024/01/24 00:03:18;;;;;;;2.10;0.88;;;;;;;;;;5051757;28;20197;-72
2024/01/24 00:05:45;;;;;;;3.15;0.90;;;;;;;;;;5051418;28;20224;-72
2024/01/24 00:08:11;;;;;;;2.25;0.90;;;;;;;;;;5051622;28;20255;-72
2024/01/24 00:10:38;;;;;;;2.25;0.80;;;;;;;;;;5051500;28;20664;-72
2024/01/24 00:13:04;;;;;;;2.85;1.15;;;;;;;;;;5051094;28;20201;-72
2024/01/24 00:15:31;;;;;;;2.47;0.93;;;;;;;;;;5051622;28;20228;-72
2024/01/24 00:17:57;;;;;;;3.20;0.60;;;;;;;;;;5051194;28;20197;-72
2024/01/24 00:20:25;;;;;;;5.85;0.77;;;;;;;;;;5052896;28;20212;-72
2024/01/24 00:22:52;;;;;;;2.53;0.93;;;;;;;;;;5055175;28;20607;-72
2024/01/24 00:25:18;;;;;;;2.25;0.68;;;;;;;;;;5055213;28;20594;-72
2024/01/24 00:27:44;;;;;;;3.55;1.05;;;;;;;;;;5055913;28;20197;-72
2024/01/24 00:30:11;;;;;;;2.92;0.90;;;;;;;;;;5056411;28;20201;-72
2024/01/24 00:32:37;;;;;;;3.33;1.13;;;;;;;;;;5057807;28;20260;-72
2024/01/24 00:35:04;;;;;;;6.65;1.10;;;;;;;;;;5058271;28;20291;-72
2024/01/24 00:37:32;;;;;;;2.05;1.13;;;;;;;;;;5058212;28;20247;-71
2024/01/24 00:39:58;;;;;;;2.28;0.98;;;;;;;;;;5056496;28;20262;-72
2024/01/24 00:42:25;;;;;;;2.40;1.15;;;;;;;;;;5046356;28;20555;-72
2024/01/24 00:44:51;;;;;;;2.05;1.02;;;;;;;;;;5055019;28;20201;-72
2024/01/24 00:47:18;;;;;;;3.70;1.08;;;;;;;;;;5054418;28;20624;-72
2024/01/24 00:49:44;;;;;;;3.92;1.30;;;;;;;;;;5054648;28;20201;-71
2024/01/24 00:52:10;;;;;;;2.47;1.10;;;;;;;;;;5054295;28;20254;-72
2024/01/24 00:54:38;;;;;;;2.75;0.95;;;;;;;;;;5054388;28;20221;-72
2024/01/24 00:57:06;;;;;;;3.47;1.10;;;;;;;;;;5055256;28;20351;-72
2024/01/24 00:59:32;;;;;;;1.50;0.68;;;;;;;;;;5071297;28;20201;-71
2024/01/24 01:01:58;;;;;;;1.50;0.60;;;;;;;;;;5069471;28;20209;-71
2024/01/24 01:04:24;;;;;;;1.95;0.80;;;;;;;;;;5054003;28;20193;-71
2024/01/24 01:06:51;;;;;;;1.58;0.65;;;;;;;;;;5059636;28;20229;-71
2024/01/24 01:09:17;;;;;;;1.67;0.50;;;;;;;;;;5073354;28;20208;-71
2024/01/24 01:11:45;;;;;;;1.63;0.80;;;;;;;;;;5075101;28;20212;-70
2024/01/24 01:14:11;;;;;;;1.67;0.80;;;;;;;;;;5073890;28;20226;-71
2024/01/24 01:16:37;;;;;;;1.40;0.80;;;;;;;;;;5074873;28;20212;-72
2024/01/24 01:19:03;;;;;;;2.38;0.80;;;;;;;;;;5074412;28;20258;-72
2024/01/24 01:21:30;;;;;;;2.53;0.90;;;;;;;;;;5074768;28;20204;-72
2024/01/24 01:23:56;;;;;;;2.15;0.73;;;;;;;;;;5075843;28;20227;-72
2024/01/24 01:26:22;;;;;;;1.55;0.50;;;;;;;;;;5064840;28;20283;-72
2024/01/24 01:28:50;;;;;;;0.70;0.68;;;;;;;;;;5056230;28;20201;-71
2024/01/24 01:31:16;;;;;;;0.95;0.60;;;;;;;;;;5054177;28;20201;-72
2024/01/24 01:33:43;;;;;;;2.85;0.80;;;;;;;;;;5054348;28;20201;-72
2024/01/24 01:36:09;;;;;;;0.65;0.50;;;;;;;;;;5054506;28;20232;-71
2024/01/24 01:38:35;;;;;;;1.20;0.80;;;;;;;;;;5067650;28;20610;-72
2024/01/24 01:41:02;;;;;;;2.72;0.60;;;;;;;;;;5054633;28;20217;-71
2024/01/24 01:43:28;;;;;;;1.75;0.70;;;;;;;;;;5056624;28;20202;-71
2024/01/24 01:45:58;;;;;;;1.80;0.70;;;;;;;;;;5070043;28;20225;-71
2024/01/24 01:48:24;;;;;;;1.85;0.70;;;;;;;;;;5051492;28;22482;-71
2024/01/24 01:50:51;;;;;;;2.00;0.60;;;;;;;;;;5033861;28;20213;-71
2024/01/24 01:53:17;;;;;;;2.95;0.95;;;;;;;;;;5052448;28;20213;-71
2024/01/24 01:55:43;;;;;;;0.75;0.70;;;;;;;;;;5059744;28;20322;-71
2024/01/24 01:58:10;;;;;;;2.70;1.00;;;;;;;;;;5054369;28;20578;-70
2024/01/24 02:00:37;;;;;;;3.25;1.00;;;;;;;;;;5054318;28;20197;-71
2024/01/24 02:03:05;;;;;;;3.40;0.93;;;;;;;;;;5054411;28;20276;-71
2024/01/24 02:05:31;;;;;;;3.67;1.02;;;;;;;;;;5046564;28;20217;-72
2024/01/24 02:07:57;;;;;;;2.90;0.60;;;;;;;;;;5053207;28;20209;-72
2024/01/24 02:10:24;;;;;;;1.52;0.70;;;;;;;;;;5053149;28;20205;-72
2024/01/24 02:12:50;;;;;;;1.25;0.70;;;;;;;;;;5053265;28;20201;-72
2024/01/24 02:15:16;;;;;;;2.78;0.85;;;;;;;;;;5053043;28;20220;-72
2024/01/24 02:17:43;;;;;;;2.97;0.60;;;;;;;;;;5053319;28;20197;-72
2024/01/24 02:20:12;;;;;;;1.40;0.60;;;;;;;;;;5053233;28;20205;-72
2024/01/24 02:22:38;;;;;;;3.13;0.80;;;;;;;;;;5053132;28;20323;-71
2024/01/24 02:25:06;;;;;;;2.95;1.40;;;;;;;;;;5053528;28;20201;-71
2024/01/24 02:27:33;;;;;;;4.20;1.15;;;;;;;;;;5052468;28;20281;-71
2024/01/24 02:29:59;;;;;;;2.25;0.80;;;;;;;;;;5052917;28;20207;-71
2024/01/24 02:32:26;;;;;;;1.63;0.82;;;;;;;;;;5052477;28;20197;-71
2024/01/24 02:34:52;;;;;;;2.00;0.93;;;;;;;;;;5052742;28;20224;-72
2024/01/24 02:37:19;;;;;;;1.67;0.80;;;;;;;;;;5052834;28;20286;-72
2024/01/24 02:39:46;;;;;;;2.35;1.50;;;;;;;;;;5052798;28;20201;-72
2024/01/24 02:42:14;;;;;;;3.10;1.17;;;;;;;;;;5052611;28;20201;-72
2024/01/24 02:44:40;;;;;;;1.08;1.00;;;;;;;;;;5051843;28;20205;-72
2024/01/24 02:47:06;;;;;;;1.45;0.90;;;;;;;;;;5052314;28;20221;-72
2024/01/24 02:49:33;;;;;;;4.55;0.80;;;;;;;;;;5052057;28;20204;-72
2024/01/24 02:52:01;;;;;;;4.03;1.27;;;;;;;;;;5052381;28;20198;-72
2024/01/24 02:54:27;;;;;;;2.35;0.90;;;;;;;;;;5052388;28;20221;-72
2024/01/24 02:56:54;;;;;;;2.63;1.20;;;;;;;;;;5052300;28;20228;-72
2024/01/24 02:59:21;;;;;;;2.90;1.10;;;;;;;;;;5052044;28;20204;-72
2024/01/24 03:01:48;;;;;;;3.38;1.02;;;;;;;;;;5052555;28;20201;-72
2024/01/24 03:04:14;;;;;;;4.38;0.80;;;;;;;;;;5051901;28;20657;-72
2024/01/24 03:06:41;;;;;;;3.47;0.70;;;;;;;;;;5052360;28;20247;-72
2024/01/24 03:09:07;;;;;;;2.30;0.80;;;;;;;;;;5052368;28;20209;-72
2024/01/24 03:11:34;;;;;;;0.90;0.88;;;;;;;;;;5052321;28;20209;-72
2024/01/24 03:14:01;;;;;;;2.05;0.73;;;;;;;;;;5052001;28;20578;-72
2024/01/24 03:16:29;;;;;;;2.05;0.90;;;;;;;;;;5052755;28;20240;-72
2024/01/24 03:18:55;;;;;;;3.95;0.80;;;;;;;;;;5052573;28;20212;-72
2024/01/24 03:21:21;;;;;;;2.47;0.60;;;;;;;;;;5052034;28;20699;-72
2024/01/24 03:23:48;;;;;;;1.08;0.82;;;;;;;;;;5051804;28;20197;-72
2024/01/24 03:26:15;;;;;;;1.40;0.70;;;;;;;;;;5052267;28;20233;-71
2024/01/24 03:28:42;;;;;;;2.03;0.70;;;;;;;;;;5043966;28;20193;-72
2024/01/24 03:31:09;;;;;;;1.95;0.77;;;;;;;;;;5052544;28;20258;-72
2024/01/24 03:33:37;;;;;;;2.22;1.20;;;;;;;;;;5051843;28;20205;-71
2024/01/24 03:36:04;;;;;;;3.50;0.80;;;;;;;;;;5051407;28;20228;-72
2024/01/24 03:38:30;;;;;;;1.48;0.90;;;;;;;;;;5042034;28;20205;-70
2024/01/24 03:40:57;;;;;;;3.03;0.80;;;;;;;;;;5051695;28;20197;-71
2024/01/24 03:43:23;;;;;;;1.48;1.00;;;;;;;;;;5051525;28;20197;-71
2024/01/24 03:45:50;;;;;;;1.70;0.90;;;;;;;;;;5051857;28;20221;-71
2024/01/24 03:48:16;;;;;;;1.60;0.80;;;;;;;;;;5051548;28;20204;-71
2024/01/24 03:50:44;;;;;;;5.47;1.38;;;;;;;;;;5043602;28;20197;-71
2024/01/24 03:53:10;;;;;;;3.15;0.90;;;;;;;;;;5051625;28;20223;-71
2024/01/24 03:55:36;;;;;;;3.22;0.90;;;;;;;;;;5053305;28;20227;-71
2024/01/24 03:58:03;;;;;;;3.17;0.93;;;;;;;;;;5055847;28;20205;-71
2024/01/24 04:00:29;;;;;;;1.70;1.08;;;;;;;;;;5055558;28;20209;-71
2024/01/24 04:02:55;;;;;;;8.57;5.75;;;;;;;;;;5055372;28;20211;-72
2024/01/24 04:05:22;;;;;;;2.70;2.50;;;;;;;;;;5055240;28;20217;-72
2024/01/24 04:07:49;;;;;;;5.25;1.98;;;;;;;;;;5055445;28;20201;-72
2024/01/24 04:10:16;;;;;;;4.00;2.05;;;;;;;;;;5055659;28;20205;-72
2024/01/24 04:12:42;;;;;;;3.25;1.52;;;;;;;;;;5055516;28;20194;-72
2024/01/24 04:15:09;;;;;;;3.63;0.95;;;;;;;;;;5055168;28;20221;-72
2024/01/24 04:17:36;;;;;;;1.85;0.93;;;;;;;;;;5055569;28;20706;-71
2024/01/24 04:20:02;;;;;;;4.38;1.02;;;;;;;;;;5055303;28;20224;-70
2024/01/24 04:22:29;;;;;;;5.70;0.95;;;;;;;;;;5055197;28;20201;-71
2024/01/24 04:24:57;;;;;;;3.05;0.82;;;;;;;;;;5055198;28;20670;-71
2024/01/24 04:27:23;;;;;;;3.10;0.95;;;;;;;;;;5054829;28;20221;-71
2024/01/24 04:29:50;;;;;;;1.48;0.98;;;;;;;;;;5055210;28;20197;-71
2024/01/24 04:32:16;;;;;;;3.03;0.85;;;;;;;;;;5054987;28;20266;-71
2024/01/24 04:34:42;;;;;;;3.28;0.75;;;;;;;;;;5055586;28;20578;-71
2024/01/24 04:37:08;;;;;;;3.17;0.80;;;;;;;;;;5056895;28;20221;-71
2024/01/24 04:39:35;;;;;;;2.08;0.70;;;;;;;;;;5060110;28;20205;-71
2024/01/24 04:42:03;;;;;;;4.72;0.98;;;;;;;;;;5062169;28;20197;-72
2024/01/24 04:44:30;;;;;;;4.70;1.00;;;;;;;;;;5062480;28;20201;-71
2024/01/24 04:46:56;;;;;;;4.82;2.47;;;;;;;;;;5063075;28;20298;-71
2024/01/24 04:49:22;;;;;;;7.53;4.03;;;;;;;;;;5054603;28;20204;-71
2024/01/24 04:51:49;;;;;;;6.60;3.40;;;;;;;;;;5054558;28;20232;-71
2024/01/24 04:54:15;;;;;;;2.72;1.10;;;;;;;;;;5054491;28;20644;-71
2024/01/24 04:56:44;;;;;;;1.65;0.88;;;;;;;;;;5054435;28;20221;-71
2024/01/24 04:59:11;;;;;;;11.88;3.88;;;;;;;;;;5054521;28;20604;-72
2024/01/24 05:01:38;;;;;;;3.10;1.70;;;;;;;;;;5054673;28;20258;-71
2024/01/24 05:04:04;;;;;;;4.75;0.90;;;;;;;;;;5054407;28;20296;-71
2024/01/24 05:06:31;;;;;;;1.38;1.13;;;;;;;;;;5054152;28;20232;-71
2024/01/24 05:08:57;;;;;;;2.40;0.93;;;;;;;;;;5057652;28;20258;-71
2024/01/24 05:11:23;;;;;;;2.85;1.10;;;;;;;;;;5056928;28;20197;-71
2024/01/24 05:13:50;;;;;;;1.15;0.90;;;;;;;;;;5037792;28;20205;-71
2024/01/24 05:16:17;;;;;;;9.27;2.28;;;;;;;;;;5053714;28;20714;-71
2024/01/24 05:18:44;;;;;;;3.42;1.73;;;;;;;;;;5053890;28;20197;-71
2024/01/24 05:21:10;;;;;;;2.97;1.02;;;;;;;;;;5054248;28;20251;-72
2024/01/24 05:23:36;;;;;;;5.18;1.38;;;;;;;;;;5053751;28;20689;-71
2024/01/24 05:26:03;;;;;;;2.53;1.00;;;;;;;;;;5054200;28;20217;-71
2024/01/24 05:28:29;;;;;;;2.95;1.33;;;;;;;;;;5054074;28;20223;-71
2024/01/24 05:30:55;;;;;;;5.20;1.15;;;;;;;;;;5053956;28;20201;-71
2024/01/24 05:33:23;;;;;;;1.65;0.80;;;;;;;;;;5053691;28;20216;-71
2024/01/24 05:35:50;;;;;;;2.92;1.00;;;;;;;;;;5053188;28;20700;-72
2024/01/24 05:38:17;;;;;;;3.33;1.08;;;;;;;;;;5053768;28;20219;-72
2024/01/24 05:40:43;;;;;;;3.03;1.38;;;;;;;;;;5053733;28;20197;-72
2024/01/24 05:43:09;;;;;;;3.28;1.33;;;;;;;;;;5053674;28;20677;-72
2024/01/24 05:45:36;;;;;;;1.25;0.80;;;;;;;;;;5053524;28;20221;-72
2024/01/24 05:48:02;;;;;;;3.15;1.27;;;;;;;;;;5053457;28;20201;-72
2024/01/24 05:50:30;;;;;;;2.00;0.80;;;;;;;;;;5053672;28;20208;-72
2024/01/24 05:52:58;;;;;;;3.50;0.98;;;;;;;;;;5053606;28;20201;-71
2024/01/24 05:55:24;;;;;;;2.13;0.80;;;;;;;;;;5053063;28;20578;-71
2024/01/24 05:57:50;;;;;;;3.13;0.80;;;;;;;;;;5053337;28;20201;-72
2024/01/24 06:00:16;;;;;;;2.15;1.15;;;;;;;;;;5053343;28;20206;-72
2024/01/24 06:02:43;;;;;;;2.10;1.10;;;;;;;;;;5043865;28;20213;-71
2024/01/24 06:05:09;;;;;;;0.95;0.70;;;;;;;;;;5052899;28;20201;-71
2024/01/24 06:07:37;;;;;;;3.90;1.00;;;;;;;;;;5052605;28;20209;-71
2024/01/24 06:10:04;;;;;;;2.10;1.15;;;;;;;;;;5052954;28;20197;-71
2024/01/24 06:12:30;;;;;;;2.08;0.90;;;;;;;;;;5053167;28;20205;-71
2024/01/24 06:14:56;;;;;;;1.67;1.13;;;;;;;;;;5054297;28;20197;-71
2024/01/24 06:17:23;;;;;;;3.50;1.10;;;;;;;;;;5052852;28;20221;-71
2024/01/24 06:19:50;;;;;;;2.28;0.82;;;;;;;;;;5052697;28;20258;-71
2024/01/24 06:22:16;;;;;;;1.00;0.70;;;;;;;;;;5052649;28;20251;-71
2024/01/24 06:24:44;;;;;;;3.17;0.90;;;;;;;;;;5053042;28;20205;-71
2024/01/24 06:27:10;;;;;;;2.53;1.00;;;;;;;;;;5053085;28;20232;-71
2024/01/24 06:29:38;;;;;;;3.40;0.85;;;;;;;;;;5043182;28;20749;-72
2024/01/24 06:32:05;;;;;;;1.55;0.73;;;;;;;;;;5052848;28;20247;-72
2024/01/24 06:34:32;;;;;;;0.73;0.60;;;;;;;;;;5043153;28;20205;-72
2024/01/24 06:36:59;;;;;;;4.47;0.70;;;;;;;;;;5052419;28;20220;-72
2024/01/24 06:39:25;;;;;;;1.33;0.75;;;;;;;;;;5052903;28;20201;-72
2024/01/24 06:41:54;;;;;;;2.00;0.80;;;;;;;;;;5052623;28;20205;-72
2024/01/24 06:44:20;;;;;;;0.70;0.70;;;;;;;;;;5051949;28;20327;-62
2024/01/24 06:46:47;;;;;;;2.45;0.90;;;;;;;;;;5052220;28;20682;-63
2024/01/24 06:49:13;;;;;;;1.00;0.90;;;;;;;;;;5051900;28;20193;-63
2024/01/24 06:51:39;;;;;;;2.08;0.80;;;;;;;;;;5051874;28;20255;-63
2024/01/24 06:54:06;;;;;;;2.30;1.17;;;;;;;;;;5051622;28;20193;-62
2024/01/24 06:56:32;;;;;;;1.80;1.45;;;;;;;;;;5051651;28;20531;-64
2024/01/24 06:59:00;;;;;;;2.78;1.50;;;;;;;;;;5043239;28;20193;-64
2024/01/24 07:01:26;;;;;;;1.55;1.15;;;;;;;;;;5052064;28;20197;-63
2024/01/24 07:03:53;;;;;;;0.93;0.70;;;;;;;;;;5051693;28;20308;-63
2024/01/24 07:06:19;;;;;;;0.70;0.70;;;;;;;;;;5051109;28;20640;-63
2024/01/24 07:08:45;;;;;;;1.13;1.00;;;;;;;;;;5051239;28;20307;-62
2024/01/24 07:11:11;;;;;;;3.03;1.50;;;;;;;;;;5051471;28;20204;-63
2024/01/24 07:13:38;;;;;;;5.03;0.88;;;;;;;;;;5041970;28;20208;-65
2024/01/24 07:16:07;;;;;;;5.05;0.98;;;;;;;;;;5045575;28;20264;-65
2024/01/24 07:18:33;;;;;;;1.33;0.68;;;;;;;;;;5045478;28;20215;-66
2024/01/24 07:21:00;;;;;;;1.73;0.70;;;;;;;;;;5045403;28;20250;-65
2024/01/24 07:23:26;;;;;;;1.17;0.60;;;;;;;;;;5038750;28;20699;-66
2024/01/24 07:25:52;;;;;;;1.33;0.77;;;;;;;;;;5042648;28;20599;-65
2024/01/24 07:28:19;;;;;;;0.70;0.50;;;;;;;;;;5042202;28;20633;-65
2024/01/24 07:30:45;;;;;;;2.53;0.80;;;;;;;;;;5042299;28;20300;-66
2024/01/24 07:33:14;;;;;;;1.75;0.60;;;;;;;;;;5043235;28;20201;-64
2024/01/24 07:35:41;;;;;;;2.03;0.73;;;;;;;;;;5042344;28;20220;-65
2024/01/24 07:38:07;;;;;;;1.02;0.50;;;;;;;;;;5042341;28;20763;-67
2024/01/24 07:40:33;;;;;;;2.10;0.50;;;;;;;;;;5042775;28;20263;-66
2024/01/24 07:43:00;;;;;;;1.63;0.80;;;;;;;;;;5042751;28;20697;-66
2024/01/24 07:45:28;;;;;;;1.98;0.65;;;;;;;;;;5041843;28;20519;-66
2024/01/24 07:47:54;;;;;;;2.03;0.70;;;;;;;;;;5041718;28;20284;-67
2024/01/24 07:50:22;;;;;;;0.80;0.60;;;;;;;;;;5042634;28;20205;-67
2024/01/24 07:52:48;;;;;;;1.00;0.60;;;;;;;;;;5042253;28;20209;-67
2024/01/24 07:55:15;;;;;;;0.60;0.60;;;;;;;;;;5042686;28;20209;-67
2024/01/24 07:57:41;;;;;;;2.42;0.65;;;;;;;;;;5042713;28;20228;-67
2024/01/24 08:00:08;;;;;;;3.35;0.90;;;;;;;;;;5042626;28;20204;-67
2024/01/24 08:02:34;;;;;;;2.50;0.73;;;;;;;;;;5042964;28;20197;-66
2024/01/24 08:05:00;;;;;;;1.23;0.60;;;;;;;;;;5042023;28;20209;-67
2024/01/24 08:07:30;;;;;;;0.70;0.65;;;;;;;;;;5042375;28;20209;-66
2024/01/24 08:09:56;;;;;;;0.50;0.50;;;;;;;;;;5041601;28;20217;-67
2024/01/24 08:12:23;;;;;;;0.82;0.60;;;;;;;;;;5042855;28;20259;-67
2024/01/24 08:14:49;;;;;;;0.82;0.50;;;;;;;;;;5042299;28;20200;-67
2024/01/24 08:17:15;;;;;;;0.80;0.60;;;;;;;;;;5042635;28;20225;-66
2024/01/24 08:19:42;;;;;;;0.68;0.43;;;;;;;;;;5041172;28;20219;-64
2024/01/24 08:22:08;;;;;;;0.60;0.50;;;;;;;;;;5038985;28;20585;-65
2024/01/24 08:24:36;;;;;;;0.70;0.50;;;;;;;;;;5043508;28;20278;-65
2024/01/24 08:27:02;;;;;;;1.73;0.40;;;;;;;;;;5044179;28;20217;-66
2024/01/24 08:29:28;;;;;;;0.85;0.40;;;;;;;;;;5044047;28;20290;-66
2024/01/24 08:31:55;;;;;;;0.95;0.52;;;;;;;;;;5043163;28;20213;-64
2024/01/24 08:34:22;;;;;;;0.30;0.30;;;;;;;;;;5044207;28;20224;-65
2024/01/24 08:36:48;;;;;;;0.73;0.40;;;;;;;;;;5043006;28;20636;-65
2024/01/24 08:39:14;;;;;;;0.40;0.30;;;;;;;;;;5042997;28;20394;-64
2024/01/24 08:41:42;;;;;;;0.93;0.45;;;;;;;;;;5043761;28;20206;-63
2024/01/24 08:44:08;;;;;;;0.30;0.30;;;;;;;;;;5046941;28;20213;-68
2024/01/24 08:46:35;;;;;;;0.30;0.30;;;;;;;;;;5046929;28;20630;-67
2024/01/24 08:49:01;;;;;;;1.00;0.50;;;;;;;;;;5046674;28;20209;-66
2024/01/24 08:51:31;;;;;;;0.40;0.40;;;;;;;;;;5047394;28;20568;-65
2024/01/24 08:53:57;;;;;;;1.60;0.45;;;;;;;;;;5047132;28;20270;-67
2024/01/24 08:56:24;;;;;;;0.30;0.30;;;;;;;;;;5047184;28;20232;-65
2024/01/24 08:58:51;;;;;;;0.30;0.30;;;;;;;;;;5046881;28;20206;-66
2024/01/24 09:01:18;;;;;;;0.40;0.40;;;;;;;;;;5047557;28;20205;-64
2024/01/24 09:03:46;;;;;;;1.65;0.20;;;;;;;;;;5047371;28;20549;-65
2024/01/24 09:06:12;;;;;;;0.20;0.20;;;;;;;;;;5040243;28;20710;-65
2024/01/24 09:08:38;;;;;;;0.40;0.40;;;;;;;;;;5046877;28;20213;-66
2024/01/24 09:11:04;;;;;;;0.20;0.20;;;;;;;;;;5046726;28;20217;-65
2024/01/24 09:13:31;;;;;;;0.32;0.20;;;;;;;;;;5046758;28;20702;-64
2024/01/24 09:15:58;;;;;;;0.57;0.30;;;;;;;;;;5047020;28;20634;-65
2024/01/24 09:18:24;;;;;;;0.20;0.20;;;;;;;;;;5046771;28;20216;-64
2024/01/24 09:20:51;;;;;;;0.30;0.30;;;;;;;;;;5046263;28;20590;-63
2024/01/24 09:23:17;;;;;;;1.45;0.32;;;;;;;;;;5046874;28;20217;-64
2024/01/24 09:25:43;;;;;;;0.30;0.30;;;;;;;;;;5046482;28;20221;-67
2024/01/24 09:28:10;;;;;;;4.57;0.30;;;;;;;;;;5046741;28;20220;-67
2024/01/24 09:30:36;;;;;;;1.08;0.30;;;;;;;;;;5045832;28;20292;-65
2024/01/24 09:33:04;;;;;;;0.20;0.20;;;;;;;;;;5045722;28;20217;-65
2024/01/24 09:35:30;;;;;;;0.20;0.20;;;;;;;;;;5046036;28;20236;-66
2024/01/24 09:37:57;;;;;;;0.57;0.40;;;;;;;;;;5045995;28;20225;-66
2024/01/24 09:40:24;;;;;;;0.30;0.25;;;;;;;;;;5046140;28;20212;-65
2024/01/24 09:42:51;;;;;;;1.30;0.20;;;;;;;;;;5045776;28;20731;-65
2024/01/24 09:45:17;;;;;;;0.10;0.10;;;;;;;;;;5046161;28;20228;-65
2024/01/24 09:47:44;;;;;;;0.40;0.20;;;;;;;;;;5045745;28;20201;-65
2024/01/24 09:50:12;;;;;;;0.20;0.20;;;;;;;;;;5045647;28;20627;-66
2024/01/24 09:52:39;;;;;;;0.20;0.20;;;;;;;;;;5045541;28;20201;-64
2024/01/24 09:55:07;;;;;;;0.80;0.20;;;;;;;;;;5046289;28;20214;-65
2024/01/24 09:57:33;;;;;;;0.20;0.20;;;;;;;;;;5045652;28;20227;-65
2024/01/24 09:59:59;;;;;;;0.20;0.20;;;;;;;;;;5045537;28;20220;-65
2024/01/24 10:02:26;;;;;;;0.20;0.20;;;;;;;;;;5045895;28;20243;-66
2024/01/24 10:04:53;;;;;;;0.10;0.10;;;;;;;;;;5046387;28;20213;-66
2024/01/24 10:07:21;;;;;;;0.90;0.30;;;;;;;;;;5045698;28;20232;-65
2024/01/24 10:09:47;;;;;;;1.42;0.10;;;;;;;;;;5045820;28;20205;-65
2024/01/24 10:12:14;;;;;;;1.35;0.13;;;;;;;;;;5045614;28;20209;-62
2024/01/24 10:14:41;;;;;;;0.80;0.20;;;;;;;;;;5045201;28;20205;-62
2024/01/24 10:17:09;;;;;;;0.17;0.10;;;;;;;;;;5044562;28;20228;-65
2024/01/24 10:19:36;;;;;;;0.35;0.20;;;;;;;;;;5045345;28;20740;-65
2024/01/24 10:22:03;;;;;;;0.20;0.20;;;;;;;;;;5044926;28;20212;-65
2024/01/24 10:24:32;;;;;;;0.20;0.20;;;;;;;;;;5045279;28;20250;-63
2024/01/24 10:26:58;;;;;;;0.22;0.22;;;;;;;;;;5045183;28;20223;-64
2024/01/24 10:29:24;;;;;;;0.20;0.20;;;;;;;;;;5045219;28;20269;-65
2024/01/24 10:31:54;;;;;;;0.32;0.10;;;;;;;;;;5044981;28;20213;-63
2024/01/24 10:34:21;;;;;;;0.73;0.43;;;;;;;;;;5037501;28;20207;-64
2024/01/24 10:36:49;;;;;;;1.00;0.20;;;;;;;;;;5045658;28;20240;-63
2024/01/24 10:39:17;;;;;;;0.20;0.20;;;;;;;;;;5045025;28;20224;-65
2024/01/24 10:41:45;;;;;;;0.40;0.20;;;;;;;;;;5045178;28;20216;-65
2024/01/24 10:44:11;;;;;;;0.15;0.15;;;;;;;;;;5044941;28;20731;-64
2024/01/24 10:46:39;;;;;;;0.13;0.13;;;;;;;;;;5045319;28;20247;-65
2024/01/24 10:49:05;;;;;;;0.17;0.17;;;;;;;;;;5044871;28;21102;-65
2024/01/24 10:51:32;;;;;;;1.55;0.15;;;;;;;;;;5045025;28;20258;-65
2024/01/24 10:53:59;;;;;;;0.25;0.25;;;;;;;;;;5044665;28;20209;-64
2024/01/24 10:56:25;;;;;;;1.27;0.40;;;;;;;;;;5044598;28;20228;-65
2024/01/24 10:58:53;;;;;;;0.20;0.20;;;;;;;;;;5044080;28;20263;-64
2024/01/24 11:01:19;;;;;;;0.20;0.20;;;;;;;;;;5045160;28;20569;-66
2024/01/24 11:03:48;;;;;;;0.30;0.30;;;;;;;;;;5044857;28;20240;-65
2024/01/24 11:06:16;;;;;;;0.20;0.20;;;;;;;;;;5042829;28;20229;-62
2024/01/24 11:08:48;;;;;;;0.17;0.17;;;;;;;;;;5044833;28;20205;-65
2024/01/24 11:11:15;;;;;;;0.20;0.20;;;;;;;;;;5044379;28;20262;-65
2024/01/24 11:13:42;;;;;;;0.70;0.20;;;;;;;;;;5044202;28;20255;-64
2024/01/24 11:16:23;;;;;;;0.52;0.30;;;;;;;;;;5044425;28;20228;-65
2024/01/24 11:18:51;;;;;;;0.10;0.10;;;;;;;;;;5044081;28;20634;-65
2024/01/24 11:21:20;;;;;;;0.20;0.10;;;;;;;;;;5044524;28;20271;-65
2024/01/24 11:23:47;;;;;;;0.20;0.20;;;;;;;;;;5043213;28;20844;-65
2024/01/24 11:26:34;;;;;;;0.38;0.30;;;;;;;;;;5044584;28;20283;-64
2024/01/24 11:29:05;;;;;;;1.17;0.30;;;;;;;;;;5043801;28;20525;-63
2024/01/24 11:31:37;;;;;;;0.20;0.20;;;;;;;;;;5044368;28;20207;-63
2024/01/24 11:34:08;;;;;;;0.20;0.20;;;;;;;;;;5043858;28;20661;-63
2024/01/24 11:36:40;;;;;;;0.98;0.20;;;;;;;;;;5044660;28;20768;-63
2024/01/24 11:39:31;;;;;;;0.60;0.30;;;;;;;;;;5043537;28;20209;-65
2024/01/24 11:42:30;;;;;;;0.25;0.20;;;;;;;;;;5043760;28;20205;-65
2024/01/24 11:45:12;;;;;;;0.40;0.40;;;;;;;;;;5040063;28;20211;-63
2024/01/24 11:47:39;;;;;;;1.77;0.30;;;;;;;;;;5040031;28;20308;-64
2024/01/24 11:50:05;;;;;;;0.50;0.50;;;;;;;;;;5042762;28;20262;-65
2024/01/24 11:52:32;;;;;;;1.08;0.40;;;;;;;;;;5043468;28;20677;-65
2024/01/24 11:54:58;;;;;;;0.20;0.20;;;;;;;;;;5043815;28;20703;-64
2024/01/24 11:57:24;;;;;;;0.93;0.40;;;;;;;;;;5044207;28;20220;-64
2024/01/24 11:59:50;;;;;;;0.73;0.30;;;;;;;;;;5043886;28;20256;-66
2024/01/24 12:02:18;;;;;;;0.70;0.40;;;;;;;;;;5043219;28;20247;-64
2024/01/24 12:04:44;;;;;;;2.83;0.40;;;;;;;;;;5043432;28;20239;-63
2024/01/24 12:07:10;;;;;;;1.10;0.50;;;;;;;;;;5043517;28;20275;-64
2024/01/24 12:09:37;;;;;;;1.10;0.30;;;;;;;;;;5043488;28;20263;-62
2024/01/24 12:12:03;;;;;;;0.40;0.40;;;;;;;;;;5043704;28;20221;-63
2024/01/24 12:14:29;;;;;;;0.90;0.45;;;;;;;;;;5042162;28;20290;-66
2024/01/24 12:16:56;;;;;;;1.95;0.47;;;;;;;;;;5045892;28;20723;-65
2024/01/24 12:19:23;;;;;;;0.50;0.22;;;;;;;;;;5047580;28;20282;-65
2024/01/24 12:21:49;;;;;;;0.40;0.40;;;;;;;;;;5046646;28;20205;-65
2024/01/24 12:24:16;;;;;;;1.27;0.77;;;;;;;;;;5046644;28;20209;-66
2024/01/24 12:26:42;;;;;;;0.30;0.30;;;;;;;;;;5047044;28;20290;-64
2024/01/24 12:29:08;;;;;;;0.60;0.47;;;;;;;;;;5047453;28;20250;-64
2024/01/24 12:31:34;;;;;;;1.90;0.60;;;;;;;;;;5047230;28;20216;-64
2024/01/24 12:34:01;;;;;;;0.93;0.63;;;;;;;;;;5047017;28;20271;-64
2024/01/24 12:36:28;;;;;;;1.65;0.57;;;;;;;;;;5046073;28;20221;-64
2024/01/24 12:38:55;;;;;;;2.10;0.52;;;;;;;;;;5047109;28;20295;-64
2024/01/24 12:41:21;;;;;;;0.57;0.40;;;;;;;;;;5046786;28;20230;-65
2024/01/24 12:43:47;;;;;;;2.08;0.73;;;;;;;;;;5047355;28;20209;-64
2024/01/24 12:46:13;;;;;;;0.40;0.40;;;;;;;;;;5047993;28;20242;-64
2024/01/24 12:48:40;;;;;;;1.33;0.70;;;;;;;;;;5047432;28;20800;-64
2024/01/24 12:51:06;;;;;;;1.35;0.73;;;;;;;;;;5046391;28;20270;-65
2024/01/24 12:53:34;;;;;;;2.45;0.63;;;;;;;;;;5043463;28;20201;-64
2024/01/24 12:56:01;;;;;;;2.40;0.80;;;;;;;;;;5046823;28;20713;-64
2024/01/24 12:58:27;;;;;;;1.10;0.60;;;;;;;;;;5045910;28;20646;-63
2024/01/24 13:00:53;;;;;;;1.50;0.70;;;;;;;;;;5047183;28;20259;-65
2024/01/24 13:03:19;;;;;;;0.50;0.50;;;;;;;;;;5046313;28;20702;-64
2024/01/24 13:05:46;;;;;;;3.47;0.52;;;;;;;;;;5046878;28;20232;-65
2024/01/24 13:08:12;;;;;;;0.38;0.38;;;;;;;;;;5046866;28;20313;-65
2024/01/24 13:10:42;;;;;;;1.25;0.60;;;;;;;;;;5046600;28;20209;-64
2024/01/24 13:13:10;;;;;;;1.83;0.60;;;;;;;;;;5046302;28;20295;-66
2024/01/24 13:15:36;;;;;;;1.30;0.57;;;;;;;;;;5038910;28;20713;-66
2024/01/24 13:18:02;;;;;;;2.47;0.80;;;;;;;;;;5046081;28;20783;-65
2024/01/24 13:20:28;;;;;;;2.20;0.50;;;;;;;;;;5046007;28;20209;-64
2024/01/24 13:22:55;;;;;;;5.43;0.85;;;;;;;;;;5046020;28;20548;-65
2024/01/24 13:25:21;;;;;;;1.63;0.55;;;;;;;;;;5046297;28;20580;-62
2024/01/24 13:27:49;;;;;;;2.63;0.82;;;;;;;;;;5045429;28;20197;-64
2024/01/24 13:30:15;;;;;;;1.85;0.50;;;;;;;;;;5046196;28;20235;-64
2024/01/24 13:32:41;;;;;;;1.60;0.50;;;;;;;;;;5046171;28;20263;-66
2024/01/24 13:35:08;;;;;;;1.88;0.80;;;;;;;;;;5045831;28;20654;-64
2024/01/24 13:37:34;;;;;;;3.40;0.60;;;;;;;;;;5045751;28;20251;-64
2024/01/24 13:40:00;;;;;;;1.75;0.50;;;;;;;;;;5046162;28;20213;-65
2024/01/24 13:42:26;;;;;;;0.82;0.77;;;;;;;;;;5046017;28;20205;-67
2024/01/24 13:44:54;;;;;;;1.20;0.60;;;;;;;;;;5045361;28;20616;-66
2024/01/24 13:47:20;;;;;;;0.98;0.60;;;;;;;;;;5045825;28;20220;-66
2024/01/24 13:49:47;;;;;;;4.72;0.70;;;;;;;;;;5045904;28;20251;-65
2024/01/24 13:52:13;;;;;;;3.17;0.75;;;;;;;;;;5045904;28;20910;-65
2024/01/24 13:54:39;;;;;;;5.03;0.73;;;;;;;;;;5045746;28;20205;-65
2024/01/24 13:57:05;;;;;;;2.35;0.50;;;;;;;;;;5046011;28;20652;-66
2024/01/24 13:59:32;;;;;;;3.50;0.85;;;;;;;;;;5045331;28;20228;-65
2024/01/24 14:01:59;;;;;;;1.27;0.50;;;;;;;;;;5045237;28;20243;-64
2024/01/24 14:04:25;;;;;;;2.53;0.57;;;;;;;;;;5045333;28;20221;-65
2024/01/24 14:06:52;;;;;;;0.93;0.70;;;;;;;;;;5045206;28;20619;-64
2024/01/24 14:09:18;;;;;;;1.45;0.60;;;;;;;;;;5045097;28;20258;-66
2024/01/24 14:11:46;;;;;;;2.67;1.00;;;;;;;;;;5045193;28;20304;-62
2024/01/24 14:14:13;;;;;;;2.03;0.52;;;;;;;;;;5045732;28;20216;-64
2024/01/24 14:16:39;;;;;;;1.15;0.93;;;;;;;;;;5044434;28;20217;-62
2024/01/24 14:19:06;;;;;;;2.00;0.75;;;;;;;;;;5044793;28;20278;-65
2024/01/24 14:21:33;;;;;;;3.45;0.85;;;;;;;;;;5045101;28;20213;-62
2024/01/24 14:23:59;;;;;;;2.20;0.85;;;;;;;;;;5045141;28;20240;-65
2024/01/24 14:26:30;;;;;;;1.90;0.70;;;;;;;;;;5045660;28;20228;-64
2024/01/24 14:28:56;;;;;;;1.23;0.77;;;;;;;;;;5046528;28;20289;-60
2024/01/24 14:31:22;;;;;;;3.25;0.82;;;;;;;;;;5046493;28;20259;-62
2024/01/24 14:33:48;;;;;;;3.42;0.80;;;;;;;;;;5046246;28;20255;-60
2024/01/24 14:36:16;;;;;;;1.95;1.00;;;;;;;;;;5046708;28;20278;-61
2024/01/24 14:38:42;;;;;;;3.05;1.05;;;;;;;;;;5038253;28;20220;-61
2024/01/24 14:41:09;;;;;;;3.05;0.95;;;;;;;;;;5048126;28;20282;-63